sensor_id;sensor_type;location;lat;lon;timestamp;pressure;altitude;pressure_sealevel;temperature;humidity
33454;BME280;39400;49.744;7.012;2022-12-19T00:01:52;96483.09;;;2.35;100.00
33454;BME280;39400;49.744;7.012;2022-12-19T00:04:18;96477.75;;;2.18;100.00
33454;BME280;39400;49.744;7.012;2022-12-19T00:06:43;96465.06;;;2.01;100.00
33454;BME280;39400;49.744;7.012;2022-12-19T00:09:08;96475.63;;;1.94;100.00
33454;BME280;39400;49.744;7.012;2022-12-19T00:11:34;96476.28;;;1.90;100.00
33454;BME280;39400;49.744;7.012;2022-12-19T00:13:59;96484.00;;;1.71;100.00
33454;BME280;39400;49.744;7.012;2022-12-19T00:16:28;96484.97;;;1.58;100.00
33454;BME280;39400;49.744;7.012;2022-12-19T00:18:55;96507.59;;;1.62;100.00
33454;BME280;39400;49.744;7.012;2022-12-19T00:21:23;96491.84;;;1.55;100.00
33454;BME280;39400;49.744;7.012;2022-12-19T00:23:49;96493.72;;;1.72;100.00
33454;BME280;39400;49.744;7.012;2022-12-19T00:28:47;96498.63;;;1.87;100.00
33454;BME280;39400;49.744;7.012;2022-12-19T00:31:14;96494.16;;;1.92;100.00
33454;BME280;39400;49.744;7.012;2022-12-19T00:33:40;96489.50;;;1.92;100.00
33454;BME280;39400;49.744;7.012;2022-12-19T00:36:10;96474.31;;;2.00;100.00
33454;BME280;39400;49.744;7.012;2022-12-19T00:38:37;96480.84;;;2.07;100.00
33454;BME280;39400;49.744;7.012;2022-12-19T00:43:44;96463.91;;;2.10;100.00
33454;BME280;39400;49.744;7.012;2022-12-19T00:46:13;96459.38;;;2.23;100.00
33454;BME280;39400;49.744;7.012;2022-12-19T00:48:40;96454.72;;;2.32;100.00
33454;BME280;39400;49.744;7.012;2022-12-19T00:51:09;96446.38;;;2.37;100.00
33454;BME280;39400;49.744;7.012;2022-12-19T00:53:35;96444.41;;;2.47;100.00
33454;BME280;39400;49.744;7.012;2022-12-19T00:56:03;96436.47;;;2.42;100.00
33454;BME280;39400;49.744;7.012;2022-12-19T00:58:32;96431.53;;;2.35;100.00
33454;BME280;39400;49.744;7.012;2022-12-19T01:01:03;96420.41;;;2.57;100.00
33454;BME280;39400;49.744;7.012;2022-12-19T01:03:28;96436.06;;;2.52;100.00
33454;BME280;39400;49.744;7.012;2022-12-19T01:05:55;96440.03;;;2.33;100.00
33454;BME280;39400;49.744;7.012;2022-12-19T01:08:21;96454.13;;;2.18;100.00
33454;BME280;39400;49.744;7.012;2022-12-19T01:10:48;96453.72;;;2.07;100.00
33454;BME280;39400;49.744;7.012;2022-12-19T01:13:16;96465.06;;;2.01;100.00
33454;BME280;39400;49.744;7.012;2022-12-19T01:15:42;96465.75;;;2.27;100.00
33454;BME280;39400;49.744;7.012;2022-12-19T01:18:08;96448.06;;;2.21;100.00
33454;BME280;39400;49.744;7.012;2022-12-19T01:20:33;96443.88;;;2.32;100.00
33454;BME280;39400;49.744;7.012;2022-12-19T01:22:58;96428.31;;;2.42;100.00
33454;BME280;39400;49.744;7.012;2022-12-19T01:25:25;96426.00;;;2.52;100.00
33454;BME280;39400;49.744;7.012;2022-12-19T01:27:53;96418.47;;;2.58;100.00
33454;BME280;39400;49.744;7.012;2022-12-19T01:30:19;96424.31;;;2.69;100.00
33454;BME280;39400;49.744;7.012;2022-12-19T01:32:45;96430.53;;;2.69;100.00
33454;BME280;39400;49.744;7.012;2022-12-19T01:35:10;96432.13;;;2.70;100.00
33454;BME280;39400;49.744;7.012;2022-12-19T01:37:35;96427.63;;;2.74;100.00
33454;BME280;39400;49.744;7.012;2022-12-19T01:40:01;96450.84;;;2.84;100.00
33454;BME280;39400;49.744;7.012;2022-12-19T01:42:33;96450.66;;;2.89;100.00
33454;BME280;39400;49.744;7.012;2022-12-19T01:50:36;96457.81;;;2.73;100.00
33454;BME280;39400;49.744;7.012;2022-12-19T01:53:05;96461.53;;;2.68;100.00
33454;BME280;39400;49.744;7.012;2022-12-19T01:55:31;96456.47;;;2.58;100.00
33454;BME280;39400;49.744;7.012;2022-12-19T01:57:58;96474.72;;;2.49;100.00
33454;BME280;39400;49.744;7.012;2022-12-19T02:00:24;96467.84;;;2.51;100.00
33454;BME280;39400;49.744;7.012;2022-12-19T02:02:57;96466.00;;;2.43;100.00
33454;BME280;39400;49.744;7.012;2022-12-19T02:05:24;96456.31;;;2.33;100.00
33454;BME280;39400;49.744;7.012;2022-12-19T02:07:51;96454.88;;;2.36;100.00
33454;BME280;39400;49.744;7.012;2022-12-19T02:10:17;96446.09;;;2.30;100.00
33454;BME280;39400;49.744;7.012;2022-12-19T02:12:43;96444.53;;;2.29;100.00
33454;BME280;39400;49.744;7.012;2022-12-19T02:15:12;96442.91;;;2.28;100.00
33454;BME280;39400;49.744;7.012;2022-12-19T02:26:05;96460.16;;;2.32;100.00
33454;BME280;39400;49.744;7.012;2022-12-19T02:29:03;96454.72;;;2.32;100.00
33454;BME280;39400;49.744;7.012;2022-12-19T02:31:49;96455.50;;;2.33;100.00
33454;BME280;39400;49.744;7.012;2022-12-19T02:37:10;96430.25;;;2.41;100.00
33454;BME280;39400;49.744;7.012;2022-12-19T02:42:24;96434.50;;;2.51;100.00
33454;BME280;39400;49.744;7.012;2022-12-19T02:44:53;96427.22;;;2.43;100.00
33454;BME280;39400;49.744;7.012;2022-12-19T02:47:20;96422.97;;;2.54;100.00
33454;BME280;39400;49.744;7.012;2022-12-19T02:49:46;96421.38;;;2.53;100.00
33454;BME280;39400;49.744;7.012;2022-12-19T02:55:10;96409.06;;;2.55;100.00
33454;BME280;39400;49.744;7.012;2022-12-19T03:00:28;96404.16;;;2.70;100.00
33454;BME280;39400;49.744;7.012;2022-12-19T03:06:01;96431.06;;;2.83;100.00
33454;BME280;39400;49.744;7.012;2022-12-19T03:08:40;96441.72;;;2.89;100.00
33454;BME280;39400;49.744;7.012;2022-12-19T03:11:11;96431.31;;;2.91;100.00
33454;BME280;39400;49.744;7.012;2022-12-19T03:13:45;96432.00;;;2.88;100.00
33454;BME280;39400;49.744;7.012;2022-12-19T03:16:14;96428.56;;;2.78;100.00
33454;BME280;39400;49.744;7.012;2022-12-19T03:18:39;96411.34;;;2.74;100.00
33454;BME280;39400;49.744;7.012;2022-12-19T03:23:59;96414.38;;;2.73;100.00
33454;BME280;39400;49.744;7.012;2022-12-19T03:26:28;96416.50;;;2.67;100.00
33454;BME280;39400;49.744;7.012;2022-12-19T03:29:02;96416.09;;;2.77;100.00
33454;BME280;39400;49.744;7.012;2022-12-19T03:31:31;96423.38;;;2.65;100.00
33454;BME280;39400;49.744;7.012;2022-12-19T03:34:01;96416.03;;;2.65;100.00
33454;BME280;39400;49.744;7.012;2022-12-19T03:36:31;96413.03;;;2.58;100.00
33454;BME280;39400;49.744;7.012;2022-12-19T03:39:00;96402.97;;;2.58;100.00
33454;BME280;39400;49.744;7.012;2022-12-19T03:41:28;96402.38;;;2.53;100.00
33454;BME280;39400;49.744;7.012;2022-12-19T03:43:54;96428.44;;;2.45;100.00
33454;BME280;39400;49.744;7.012;2022-12-19T03:46:23;96418.38;;;2.46;100.00
33454;BME280;39400;49.744;7.012;2022-12-19T03:48:51;96413.81;;;2.37;100.00
33454;BME280;39400;49.744;7.012;2022-12-19T03:51:32;96404.03;;;2.45;100.00
33454;BME280;39400;49.744;7.012;2022-12-19T03:54:05;96390.31;;;2.42;100.00
33454;BME280;39400;49.744;7.012;2022-12-19T03:56:39;96390.53;;;2.36;100.00
33454;BME280;39400;49.744;7.012;2022-12-19T03:59:10;96381.66;;;2.27;100.00
33454;BME280;39400;49.744;7.012;2022-12-19T04:01:37;96390.84;;;2.35;100.00
33454;BME280;39400;49.744;7.012;2022-12-19T04:04:04;96386.03;;;2.41;100.00
33454;BME280;39400;49.744;7.012;2022-12-19T04:06:32;96392.25;;;2.41;100.00
33454;BME280;39400;49.744;7.012;2022-12-19T04:08:58;96397.28;;;2.51;100.00
33454;BME280;39400;49.744;7.012;2022-12-19T04:11:33;96400.78;;;2.52;100.00
33454;BME280;39400;49.744;7.012;2022-12-19T04:14:02;96405.44;;;2.51;100.00
33454;BME280;39400;49.744;7.012;2022-12-19T04:17:15;96405.28;;;2.48;100.00
33454;BME280;39400;49.744;7.012;2022-12-19T04:19:36;96404.44;;;2.56;100.00
33454;BME280;39400;49.744;7.012;2022-12-19T04:22:10;96397.41;;;2.55;100.00
33454;BME280;39400;49.744;7.012;2022-12-19T04:24:39;96402.06;;;2.54;100.00
33454;BME280;39400;49.744;7.012;2022-12-19T04:27:06;96402.84;;;2.55;100.00
33454;BME280;39400;49.744;7.012;2022-12-19T04:29:34;96397.56;;;2.58;100.00
33454;BME280;39400;49.744;7.012;2022-12-19T04:32:02;96389.22;;;2.84;100.00
33454;BME280;39400;49.744;7.012;2022-12-19T04:34:31;96400.47;;;2.74;100.00
33454;BME280;39400;49.744;7.012;2022-12-19T04:36:56;96388.69;;;2.70;100.00
33454;BME280;39400;49.744;7.012;2022-12-19T04:39:23;96386.56;;;2.76;100.00
33454;BME280;39400;49.744;7.012;2022-12-19T04:41:48;96384.06;;;2.71;100.00
33454;BME280;39400;49.744;7.012;2022-12-19T04:44:13;96386.81;;;2.62;100.00
33454;BME280;39400;49.744;7.012;2022-12-19T04:46:38;96382.25;;;2.54;100.00
33454;BME280;39400;49.744;7.012;2022-12-19T04:49:04;96370.53;;;2.62;100.00
33454;BME280;39400;49.744;7.012;2022-12-19T04:51:29;96380.47;;;2.79;100.00
33454;BME280;39400;49.744;7.012;2022-12-19T04:53:54;96381.97;;;2.89;100.00
33454;BME280;39400;49.744;7.012;2022-12-19T04:56:20;96374.75;;;2.93;100.00
33454;BME280;39400;49.744;7.012;2022-12-19T04:58:46;96377.25;;;2.98;100.00
33454;BME280;39400;49.744;7.012;2022-12-19T05:01:11;96384.16;;;2.95;100.00
33454;BME280;39400;49.744;7.012;2022-12-19T05:03:36;96395.34;;;2.94;100.00
33454;BME280;39400;49.744;7.012;2022-12-19T05:06:10;96390.31;;;2.62;100.00
33454;BME280;39400;49.744;7.012;2022-12-19T05:08:37;96393.31;;;2.49;100.00
33454;BME280;39400;49.744;7.012;2022-12-19T05:11:04;96410.25;;;2.46;100.00
33454;BME280;39400;49.744;7.012;2022-12-19T05:13:30;96399.00;;;2.56;100.00
33454;BME280;39400;49.744;7.012;2022-12-19T05:16:00;96405.78;;;2.50;100.00
33454;BME280;39400;49.744;7.012;2022-12-19T05:18:26;96397.75;;;2.53;100.00
33454;BME280;39400;49.744;7.012;2022-12-19T05:20:52;96389.34;;;2.46;100.00
33454;BME280;39400;49.744;7.012;2022-12-19T05:23:17;96398.06;;;2.52;100.00
33454;BME280;39400;49.744;7.012;2022-12-19T05:25:42;96382.97;;;2.63;100.00
33454;BME280;39400;49.744;7.012;2022-12-19T05:28:08;96377.34;;;2.68;100.00
33454;BME280;39400;49.744;7.012;2022-12-19T05:30:33;96378.28;;;2.72;100.00
33454;BME280;39400;49.744;7.012;2022-12-19T05:32:58;96376.63;;;2.80;100.00
33454;BME280;39400;49.744;7.012;2022-12-19T05:35:23;96377.75;;;2.79;100.00
33454;BME280;39400;49.744;7.012;2022-12-19T05:37:49;96389.72;;;2.99;100.00
33454;BME280;39400;49.744;7.012;2022-12-19T05:40:14;96385.50;;;3.22;100.00
33454;BME280;39400;49.744;7.012;2022-12-19T05:42:39;96395.25;;;3.23;100.00
33454;BME280;39400;49.744;7.012;2022-12-19T05:45:05;96392.41;;;3.32;100.00
33454;BME280;39400;49.744;7.012;2022-12-19T05:47:31;96393.00;;;3.38;100.00
33454;BME280;39400;49.744;7.012;2022-12-19T05:49:56;96393.50;;;3.52;100.00
33454;BME280;39400;49.744;7.012;2022-12-19T05:52:22;96399.19;;;3.71;100.00
33454;BME280;39400;49.744;7.012;2022-12-19T05:54:47;96405.06;;;3.73;100.00
33454;BME280;39400;49.744;7.012;2022-12-19T05:57:12;96401.69;;;3.76;100.00
33454;BME280;39400;49.744;7.012;2022-12-19T05:59:37;96418.13;;;3.80;100.00
33454;BME280;39400;49.744;7.012;2022-12-19T06:02:03;96419.34;;;3.70;100.00
33454;BME280;39400;49.744;7.012;2022-12-19T06:04:28;96429.06;;;3.59;100.00
33454;BME280;39400;49.744;7.012;2022-12-19T06:06:54;96431.56;;;3.52;100.00
33454;BME280;39400;49.744;7.012;2022-12-19T06:09:19;96430.41;;;3.41;100.00
33454;BME280;39400;49.744;7.012;2022-12-19T06:11:44;96430.09;;;3.21;100.00
33454;BME280;39400;49.744;7.012;2022-12-19T06:14:10;96424.88;;;3.16;100.00
33454;BME280;39400;49.744;7.012;2022-12-19T06:16:36;96421.38;;;3.16;100.00
33454;BME280;39400;49.744;7.012;2022-12-19T06:19:01;96430.91;;;3.01;100.00
33454;BME280;39400;49.744;7.012;2022-12-19T06:21:26;96416.41;;;2.97;100.00
33454;BME280;39400;49.744;7.012;2022-12-19T06:23:53;96424.91;;;2.95;100.00
33454;BME280;39400;49.744;7.012;2022-12-19T06:26:20;96424.78;;;2.92;100.00
33454;BME280;39400;49.744;7.012;2022-12-19T06:28:46;96427.22;;;2.84;100.00
33454;BME280;39400;49.744;7.012;2022-12-19T06:31:12;96422.59;;;2.85;100.00
33454;BME280;39400;49.744;7.012;2022-12-19T06:33:38;96409.72;;;2.73;100.00
33454;BME280;39400;49.744;7.012;2022-12-19T06:36:10;96417.16;;;2.85;100.00
33454;BME280;39400;49.744;7.012;2022-12-19T06:38:36;96419.94;;;2.76;100.00
33454;BME280;39400;49.744;7.012;2022-12-19T06:41:02;96424.13;;;2.74;100.00
33454;BME280;39400;49.744;7.012;2022-12-19T06:43:27;96409.72;;;2.73;100.00
33454;BME280;39400;49.744;7.012;2022-12-19T06:45:55;96418.34;;;2.75;100.00
33454;BME280;39400;49.744;7.012;2022-12-19T06:48:21;96424.69;;;2.79;100.00
33454;BME280;39400;49.744;7.012;2022-12-19T06:50:46;96425.84;;;2.78;100.00
33454;BME280;39400;49.744;7.012;2022-12-19T06:53:11;96414.50;;;2.76;100.00
33454;BME280;39400;49.744;7.012;2022-12-19T06:55:37;96396.13;;;2.94;100.00
33454;BME280;39400;49.744;7.012;2022-12-19T06:58:03;96410.75;;;3.23;100.00
33454;BME280;39400;49.744;7.012;2022-12-19T07:00:28;96410.34;;;3.33;100.00
33454;BME280;39400;49.744;7.012;2022-12-19T07:02:54;96414.28;;;3.36;100.00
33454;BME280;39400;49.744;7.012;2022-12-19T07:05:21;96404.47;;;3.43;100.00
33454;BME280;39400;49.744;7.012;2022-12-19T07:07:46;96422.47;;;3.48;100.00
33454;BME280;39400;49.744;7.012;2022-12-19T07:10:12;96416.38;;;3.51;100.00
33454;BME280;39400;49.744;7.012;2022-12-19T07:12:37;96415.81;;;3.57;100.00
33454;BME280;39400;49.744;7.012;2022-12-19T07:15:03;96408.22;;;3.63;100.00
33454;BME280;39400;49.744;7.012;2022-12-19T07:17:29;96408.03;;;3.68;100.00
33454;BME280;39400;49.744;7.012;2022-12-19T07:19:56;96407.13;;;3.76;100.00
33454;BME280;39400;49.744;7.012;2022-12-19T07:22:23;96405.78;;;3.83;100.00
33454;BME280;39400;49.744;7.012;2022-12-19T07:24:53;96406.59;;;3.95;100.00
33454;BME280;39400;49.744;7.012;2022-12-19T07:27:20;96411.78;;;4.00;100.00
33454;BME280;39400;49.744;7.012;2022-12-19T07:29:45;96407.81;;;3.98;100.00
33454;BME280;39400;49.744;7.012;2022-12-19T07:32:10;96417.25;;;4.00;100.00
33454;BME280;39400;49.744;7.012;2022-12-19T07:34:35;96421.22;;;4.03;100.00
33454;BME280;39400;49.744;7.012;2022-12-19T07:37:01;96424.13;;;3.98;100.00
33454;BME280;39400;49.744;7.012;2022-12-19T07:39:26;96430.84;;;3.88;100.00
33454;BME280;39400;49.744;7.012;2022-12-19T07:41:51;96428.00;;;3.97;100.00
33454;BME280;39400;49.744;7.012;2022-12-19T07:44:28;96432.53;;;4.05;100.00
33454;BME280;39400;49.744;7.012;2022-12-19T07:46:54;96432.09;;;4.15;100.00
33454;BME280;39400;49.744;7.012;2022-12-19T07:49:19;96435.03;;;4.22;100.00
33454;BME280;39400;49.744;7.012;2022-12-19T07:51:44;96438.91;;;4.21;100.00
33454;BME280;39400;49.744;7.012;2022-12-19T07:54:10;96443.44;;;4.17;100.00
33454;BME280;39400;49.744;7.012;2022-12-19T07:56:35;96428.69;;;4.18;100.00
33454;BME280;39400;49.744;7.012;2022-12-19T07:59:00;96447.06;;;4.21;100.00
33454;BME280;39400;49.744;7.012;2022-12-19T08:01:26;96449.00;;;4.21;100.00
33454;BME280;39400;49.744;7.012;2022-12-19T08:03:51;96448.53;;;4.19;100.00
33454;BME280;39400;49.744;7.012;2022-12-19T08:06:16;96447.97;;;4.38;100.00
33454;BME280;39400;49.744;7.012;2022-12-19T08:08:42;96449.44;;;4.35;100.00
33454;BME280;39400;49.744;7.012;2022-12-19T08:11:16;96468.06;;;4.33;100.00
33454;BME280;39400;49.744;7.012;2022-12-19T08:13:42;96472.94;;;4.27;100.00
33454;BME280;39400;49.744;7.012;2022-12-19T08:16:07;96466.78;;;4.18;100.00
33454;BME280;39400;49.744;7.012;2022-12-19T08:18:32;96471.31;;;4.14;100.00
33454;BME280;39400;49.744;7.012;2022-12-19T08:20:58;96462.03;;;4.15;100.00
33454;BME280;39400;49.744;7.012;2022-12-19T08:23:24;96450.47;;;4.31;100.00
33454;BME280;39400;49.744;7.012;2022-12-19T08:26:00;96449.56;;;4.39;100.00
33454;BME280;39400;49.744;7.012;2022-12-19T08:28:26;96447.50;;;4.48;100.00
33454;BME280;39400;49.744;7.012;2022-12-19T08:30:51;96447.06;;;4.58;100.00
33454;BME280;39400;49.744;7.012;2022-12-19T08:33:17;96433.59;;;4.77;100.00
33454;BME280;39400;49.744;7.012;2022-12-19T08:35:42;96437.00;;;4.87;100.00
33454;BME280;39400;49.744;7.012;2022-12-19T08:38:07;96436.78;;;4.92;100.00
33454;BME280;39400;49.744;7.012;2022-12-19T08:40:33;96434.75;;;4.89;100.00
33454;BME280;39400;49.744;7.012;2022-12-19T08:42:58;96442.88;;;5.01;100.00
33454;BME280;39400;49.744;7.012;2022-12-19T08:45:24;96442.78;;;5.25;100.00
33454;BME280;39400;49.744;7.012;2022-12-19T08:47:49;96430.66;;;5.23;100.00
33454;BME280;39400;49.744;7.012;2022-12-19T08:50:14;96431.88;;;5.25;100.00
33454;BME280;39400;49.744;7.012;2022-12-19T08:52:40;96427.75;;;5.32;100.00
33454;BME280;39400;49.744;7.012;2022-12-19T08:55:05;96430.00;;;5.42;100.00
33454;BME280;39400;49.744;7.012;2022-12-19T08:57:31;96422.06;;;5.37;100.00
33454;BME280;39400;49.744;7.012;2022-12-19T09:00:06;96425.88;;;5.48;100.00
33454;BME280;39400;49.744;7.012;2022-12-19T09:02:31;96426.72;;;5.36;100.00
33454;BME280;39400;49.744;7.012;2022-12-19T09:04:57;96414.63;;;5.21;100.00
33454;BME280;39400;49.744;7.012;2022-12-19T09:07:22;96423.47;;;5.31;100.00
33454;BME280;39400;49.744;7.012;2022-12-19T09:09:47;96403.91;;;5.29;100.00
33454;BME280;39400;49.744;7.012;2022-12-19T09:12:14;96414.03;;;5.28;100.00
33454;BME280;39400;49.744;7.012;2022-12-19T09:14:39;96408.50;;;5.24;100.00
33454;BME280;39400;49.744;7.012;2022-12-19T09:17:05;96418.25;;;5.25;100.00
33454;BME280;39400;49.744;7.012;2022-12-19T09:19:30;96411.44;;;5.19;100.00
33454;BME280;39400;49.744;7.012;2022-12-19T09:21:56;96416.81;;;5.16;100.00
33454;BME280;39400;49.744;7.012;2022-12-19T09:24:21;96411.91;;;5.21;100.00
33454;BME280;39400;49.744;7.012;2022-12-19T09:26:46;96412.16;;;5.16;100.00
33454;BME280;39400;49.744;7.012;2022-12-19T09:29:12;96421.56;;;5.19;100.00
33454;BME280;39400;49.744;7.012;2022-12-19T09:31:38;96423.09;;;5.04;100.00
33454;BME280;39400;49.744;7.012;2022-12-19T09:34:03;96419.00;;;5.10;100.00
33454;BME280;39400;49.744;7.012;2022-12-19T09:36:28;96416.00;;;5.15;100.00
33454;BME280;39400;49.744;7.012;2022-12-19T09:38:55;96415.31;;;5.18;100.00
33454;BME280;39400;49.744;7.012;2022-12-19T09:41:37;96404.41;;;5.18;100.00
33454;BME280;39400;49.744;7.012;2022-12-19T09:47:04;96399.16;;;5.25;100.00
33454;BME280;39400;49.744;7.012;2022-12-19T09:49:40;96398.97;;;5.18;100.00
33454;BME280;39400;49.744;7.012;2022-12-19T09:52:24;96408.28;;;5.17;100.00
33454;BME280;39400;49.744;7.012;2022-12-19T09:55:31;96408.97;;;5.14;100.00
33454;BME280;39400;49.744;7.012;2022-12-19T09:58:06;96418.53;;;5.08;100.00
33454;BME280;39400;49.744;7.012;2022-12-19T10:00:40;96413.53;;;5.10;100.00
33454;BME280;39400;49.744;7.012;2022-12-19T10:06:26;96412.75;;;5.10;100.00
33454;BME280;39400;49.744;7.012;2022-12-19T10:08:53;96400.13;;;5.17;100.00
33454;BME280;39400;49.744;7.012;2022-12-19T10:11:35;96390.38;;;5.16;100.00
33454;BME280;39400;49.744;7.012;2022-12-19T10:14:08;96385.78;;;5.20;100.00
33454;BME280;39400;49.744;7.012;2022-12-19T10:19:57;96377.63;;;5.20;100.00
33454;BME280;39400;49.744;7.012;2022-12-19T10:28:11;96374.47;;;5.34;100.00
33454;BME280;39400;49.744;7.012;2022-12-19T10:30:50;96365.94;;;5.36;100.00
33454;BME280;39400;49.744;7.012;2022-12-19T10:33:44;96353.09;;;5.36;100.00
33454;BME280;39400;49.744;7.012;2022-12-19T10:36:12;96362.28;;;5.44;100.00
33454;BME280;39400;49.744;7.012;2022-12-19T10:38:50;96355.50;;;5.54;100.00
33454;BME280;39400;49.744;7.012;2022-12-19T10:41:27;96357.59;;;5.60;100.00
33454;BME280;39400;49.744;7.012;2022-12-19T10:44:01;96346.69;;;5.60;100.00
33454;BME280;39400;49.744;7.012;2022-12-19T10:46:40;96343.28;;;5.63;100.00
33454;BME280;39400;49.744;7.012;2022-12-19T10:51:39;96334.84;;;5.68;100.00
33454;BME280;39400;49.744;7.012;2022-12-19T10:54:04;96343.63;;;5.78;100.00
33454;BME280;39400;49.744;7.012;2022-12-19T10:56:31;96339.31;;;5.77;100.00
33454;BME280;39400;49.744;7.012;2022-12-19T10:58:57;96342.22;;;5.84;100.00
33454;BME280;39400;49.744;7.012;2022-12-19T11:01:32;96347.75;;;5.87;100.00
33454;BME280;39400;49.744;7.012;2022-12-19T11:06:43;96341.50;;;5.87;100.00
33454;BME280;39400;49.744;7.012;2022-12-19T11:11:40;96340.81;;;5.90;100.00
33454;BME280;39400;49.744;7.012;2022-12-19T11:14:29;96332.16;;;5.88;100.00
33454;BME280;39400;49.744;7.012;2022-12-19T11:16:55;96346.25;;;5.90;100.00
33454;BME280;39400;49.744;7.012;2022-12-19T11:19:33;96331.16;;;5.92;100.00
33454;BME280;39400;49.744;7.012;2022-12-19T11:22:05;96327.78;;;5.99;100.00
33454;BME280;39400;49.744;7.012;2022-12-19T11:24:44;96325.88;;;6.00;100.00
33454;BME280;39400;49.744;7.012;2022-12-19T11:29:57;96331.19;;;6.12;100.00
33454;BME280;39400;49.744;7.012;2022-12-19T11:32:34;96318.94;;;6.22;100.00
33454;BME280;39400;49.744;7.012;2022-12-19T11:35:02;96331.19;;;6.28;100.00
33454;BME280;39400;49.744;7.012;2022-12-19T11:37:38;96327.59;;;6.24;100.00
33454;BME280;39400;49.744;7.012;2022-12-19T11:40:16;96331.59;;;6.30;100.00
33454;BME280;39400;49.744;7.012;2022-12-19T11:48:00;96312.78;;;6.44;100.00
33454;BME280;39400;49.744;7.012;2022-12-19T11:50:39;96325.72;;;6.47;100.00
33454;BME280;39400;49.744;7.012;2022-12-19T11:53:43;96318.13;;;6.56;100.00
33454;BME280;39400;49.744;7.012;2022-12-19T11:56:15;96316.63;;;6.59;100.00
33454;BME280;39400;49.744;7.012;2022-12-19T11:58:48;96308.91;;;6.64;100.00
33454;BME280;39400;49.744;7.012;2022-12-19T12:01:41;96301.25;;;6.70;100.00
33454;BME280;39400;49.744;7.012;2022-12-19T12:06:49;96301.88;;;6.63;100.00
33454;BME280;39400;49.744;7.012;2022-12-19T12:09:55;96294.13;;;6.65;100.00
33454;BME280;39400;49.744;7.012;2022-12-19T12:12:26;96290.69;;;6.69;100.00
33454;BME280;39400;49.744;7.012;2022-12-19T12:23:23;96281.19;;;6.62;100.00
33454;BME280;39400;49.744;7.012;2022-12-19T12:45:55;96296.25;;;6.37;100.00
33454;BME280;39400;49.744;7.012;2022-12-19T12:48:33;96293.38;;;6.30;100.00
33454;BME280;39400;49.744;7.012;2022-12-19T12:51:00;96295.91;;;6.38;100.00
33454;BME280;39400;49.744;7.012;2022-12-19T12:53:34;96285.31;;;6.37;100.00
33454;BME280;39400;49.744;7.012;2022-12-19T12:56:03;96272.56;;;6.41;100.00
33454;BME280;39400;49.744;7.012;2022-12-19T13:03:52;96292.38;;;6.38;100.00
33454;BME280;39400;49.744;7.012;2022-12-19T13:11:46;96297.78;;;6.54;100.00
33454;BME280;39400;49.744;7.012;2022-12-19T13:17:00;96291.25;;;6.58;100.00
33454;BME280;39400;49.744;7.012;2022-12-19T13:19:31;96294.41;;;6.60;100.00
33454;BME280;39400;49.744;7.012;2022-12-19T13:24:54;96297.41;;;6.75;100.00
33454;BME280;39400;49.744;7.012;2022-12-19T13:37:50;96287.59;;;6.89;100.00
33454;BME280;39400;49.744;7.012;2022-12-19T13:40:33;96280.56;;;6.92;100.00
33454;BME280;39400;49.744;7.012;2022-12-19T13:43:20;96280.50;;;6.88;100.00
33454;BME280;39400;49.744;7.012;2022-12-19T13:45:51;96278.56;;;6.89;100.00
33454;BME280;39400;49.744;7.012;2022-12-19T13:48:25;96283.75;;;6.94;100.00
33454;BME280;39400;49.744;7.012;2022-12-19T13:50:52;96277.06;;;6.91;100.00
33454;BME280;39400;49.744;7.012;2022-12-19T13:53:21;96278.22;;;6.90;100.00
33454;BME280;39400;49.744;7.012;2022-12-19T13:55:47;96276.66;;;6.89;100.00
33454;BME280;39400;49.744;7.012;2022-12-19T13:58:25;96273.53;;;6.91;100.00
33454;BME280;39400;49.744;7.012;2022-12-19T14:00:54;96272.38;;;6.92;100.00
33454;BME280;39400;49.744;7.012;2022-12-19T14:03:31;96291.09;;;6.90;100.00
33454;BME280;39400;49.744;7.012;2022-12-19T14:06:02;96298.59;;;6.93;100.00
33454;BME280;39400;49.744;7.012;2022-12-19T14:08:31;96292.22;;;6.89;100.00
33454;BME280;39400;49.744;7.012;2022-12-19T14:10:57;96294.56;;;6.87;100.00
33454;BME280;39400;49.744;7.012;2022-12-19T14:13:23;96303.31;;;6.96;100.00
33454;BME280;39400;49.744;7.012;2022-12-19T14:15:48;96294.69;;;6.94;100.00
33454;BME280;39400;49.744;7.012;2022-12-19T14:18:20;96293.84;;;6.90;100.00
33454;BME280;39400;49.744;7.012;2022-12-19T14:20:50;96286.91;;;6.96;100.00
33454;BME280;39400;49.744;7.012;2022-12-19T14:23:30;96283.75;;;6.94;100.00
33454;BME280;39400;49.744;7.012;2022-12-19T14:25:56;96289.88;;;6.87;100.00
33454;BME280;39400;49.744;7.012;2022-12-19T14:28:38;96293.84;;;6.90;100.00
33454;BME280;39400;49.744;7.012;2022-12-19T14:31:11;96293.84;;;6.90;100.00
33454;BME280;39400;49.744;7.012;2022-12-19T14:33:41;96296.91;;;6.88;100.00
33454;BME280;39400;49.744;7.012;2022-12-19T14:36:09;96284.78;;;6.86;100.00
33454;BME280;39400;49.744;7.012;2022-12-19T14:38:36;96289.16;;;6.90;100.00
33454;BME280;39400;49.744;7.012;2022-12-19T14:41:02;96275.81;;;6.89;100.00
33454;BME280;39400;49.744;7.012;2022-12-19T14:43:29;96279.72;;;6.88;100.00
33454;BME280;39400;49.744;7.012;2022-12-19T14:46:12;96266.44;;;6.86;100.00
33454;BME280;39400;49.744;7.012;2022-12-19T14:48:55;96265.47;;;6.79;100.00
33454;BME280;39400;49.744;7.012;2022-12-19T14:54:15;96268.53;;;6.74;100.00
33454;BME280;39400;49.744;7.012;2022-12-19T14:56:42;96258.75;;;6.73;100.00
33454;BME280;39400;49.744;7.012;2022-12-19T15:01:54;96270.03;;;6.71;100.00
33454;BME280;39400;49.744;7.012;2022-12-19T15:04:24;96273.84;;;6.66;100.00
33454;BME280;39400;49.744;7.012;2022-12-19T15:06:52;96286.50;;;6.75;100.00
33454;BME280;39400;49.744;7.012;2022-12-19T15:09:19;96283.28;;;6.69;100.00
33454;BME280;39400;49.744;7.012;2022-12-19T15:11:46;96287.06;;;6.64;100.00
33454;BME280;39400;49.744;7.012;2022-12-19T15:14:12;96298.50;;;6.70;100.00
33454;BME280;39400;49.744;7.012;2022-12-19T15:16:37;96288.03;;;6.72;100.00
33454;BME280;39400;49.744;7.012;2022-12-19T15:19:09;96282.19;;;6.74;100.00
33454;BME280;39400;49.744;7.012;2022-12-19T15:21:35;96279.44;;;6.74;100.00